Terminal Aerodrome Forecast
Issued by NWS

Home | Current Version | Previous Version | Text Only | Print | Product List | Glossary Off
Versions: 1 2 3 4 5 6 7 8 9 10 11 12 13

000
FTUS43 KGRB 281720
TAFCWA
TAF
KCWA 281720Z 2818/2918 17011G19KT P6SM SCT100 BKN250
     FM290100 16008KT P6SM SCT250
     FM290400 22007KT P6SM VCSH BKN045
      TEMPO 2905/2908 2SM TSRA BKN020CB
     FM291000 27008KT P6SM SCT100 BKN250
     FM291300 26013G23KT P6SM SCT250=

USA.gov is the U.S. government's official web portal to all federal, state and local government web resources and services.